Elma, WA

2:10 PM PST on March 06, 2015 (GMT -0800)
Downtown Elma | Change Station
CLOSE
Current Station
Personal Weather Station
Location: Elma, WA
Elevation: 59 ft
Nearby Weather Stations

Elev 59 ft 47.01 °N, 123.41 °W | Updated 23 seconds ago

Clear
Clear
68.9 °F
Feels Like 68.9 °F
N
3.1
Wind Variable Wind from SW
Gusts 3.8 mph

Today
High -- | Low -- °F
--% Chance of Precip.
Yesterday
High -- | Low -- °F
Precip. -- in
6:44 AM 6:06 PM
Full, 99% visible
Pressure 30.38 in
Visibility 10.0 miles
Clouds Clear
Dew Point 42 °F
Humidity 37%
Rainfall in
Snow Depth Not available.
UV 4 out of 12
Pollen 6.80 out of 12
Air Quality Not available.
Flu Activity Not available.
METAR KSHN 062153Z AUTO VRB05KT 10SM CLR 16/02 A3036 RMK AO2 SLP285 T01560022

More Conditions Fewer Conditions

Pressure 30.38 in
Visibility 10.0 miles
Clouds Clear
Dew Point 42 °F
Humidity 37%
Rainfall in
Snow Depth Not available.
UV 4 out of 12
Pollen 6.80 out of 12
Air Quality Not available.
Flu Activity Not available.
METAR KSHN 062153Z AUTO VRB05KT 10SM CLR 16/02 A3036 RMK AO2 SLP285 T01560022

More Conditions Fewer Conditions

10-Day Weather Forecast

Almanac

Astronomy

Mar. 06, 2015 Rise Set
Actual Time
Civil Twilight
Nautical Twilight
Astronomical Twilight
Moon
Length of Visible Light
Length of Day
Tomorrow will be .
, % of the Moon is Illuminated

Today's Extremes

State Highs State Lows

Community

WunderPhotos

Upload Photos

1,803,420 photos uploaded!

WunderBlogs® & News

Nearby

Air Quality

  Air Quality AQ Index Pollutant
Not available.

Snow Depth

Station Depth Elevation

Earthquake Activity

City Distance Mag. Time & Date
Minimum magnitude displayed is 2.5.

Coastal Water Temperatures

Place Temperature

Nearby Weather Stations